Saint-Eleuthere, Canada
Current Conditions -  °F | °C
As of 3:53 PM on Tuesday 27 Jan 2015 (Local Time) from KFVE Reporting Station
Light Snow Light Snow  
Wind Chill: -16°   Ceiling: 2500
Heat Index:   Visibility: 1mi
Dew Point: -2°   Wind: 17mph
Humidity: 76%   Direction: 10°N
Pressure: 29.89"   Gusts: 25mph
Location:  47.48°N, 69.28°W
Report Text: KFVE 272053Z AUTO 01015G22KT 1SM -SN OVC025 M16/M19 A2989 RMK AO2 SLP145 P0000 60000 T11561189 58029
Loading
Personal Weather Stations






























Interactive Weather Map New forecast layout! Learn more

10-Day Weather Forecast

Advertisements
Track Severe Weather on mobile